Time;durP1;ratioP1;P1;durP2;ratioP2;P2;SDS_P1;SDS_P2;PMS_P1;PMS_P2;Temp;Humidity;BMP_temperature;BMP_pressure;BME280_temperature;BME280_humidity;BME280_pressure;Samples;Min_cycle;Max_cycle;Signal;HPM_P1;HPM_P2
2023/09/03 00:01:44;;;;;;;34.83;15.07;;;12.80;99.90;;;;;;4994274;28;20058;-74
2023/09/03 00:04:10;;;;;;;32.35;14.15;;;12.80;99.90;;;;;;4994425;28;20289;-74
2023/09/03 00:06:36;;;;;;;27.55;13.30;;;12.90;99.90;;;;;;4993487;28;20050;-74
2023/09/03 00:09:04;;;;;;;37.25;15.90;;;12.90;99.90;;;;;;4994888;28;20050;-75
2023/09/03 00:11:30;;;;;;;39.33;16.08;;;12.90;99.90;;;;;;4993514;28;20043;-75
2023/09/03 00:13:56;;;;;;;32.25;15.02;;;12.80;99.90;;;;;;4994632;28;20056;-74
2023/09/03 00:16:21;;;;;;;34.28;14.93;;;12.80;99.90;;;;;;4993434;28;20046;-74
2023/09/03 00:18:47;;;;;;;36.88;16.13;;;12.70;99.90;;;;;;4994571;28;20077;-74
2023/09/03 00:21:13;;;;;;;38.83;17.50;;;12.80;99.90;;;;;;4994206;28;20045;-74
2023/09/03 00:23:39;;;;;;;34.28;15.63;;;12.80;99.90;;;;;;4992987;28;20101;-75
2023/09/03 00:26:04;;;;;;;35.92;16.35;;;12.80;99.90;;;;;;4977680;28;20060;-75
2023/09/03 00:28:31;;;;;;;39.25;18.13;;;12.80;99.90;;;;;;4994674;28;20487;-74
2023/09/03 00:31:05;;;;;;;44.33;18.30;;;12.80;99.90;;;;;;4993931;28;20050;-75
2023/09/03 00:33:31;;;;;;;44.83;18.85;;;12.80;99.90;;;;;;4994037;28;20042;-75
2023/09/03 00:35:58;;;;;;;40.53;17.65;;;12.70;99.90;;;;;;4993405;28;20038;-75
2023/09/03 00:38:24;;;;;;;;;;;12.70;99.90;;;;;;4994347;28;20486;-74
2023/09/03 00:40:50;;;;;;;44.03;17.53;;;12.70;99.90;;;;;;4993372;28;19972;-75
2023/09/03 00:43:16;;;;;;;45.30;18.90;;;12.70;99.90;;;;;;4993945;28;20486;-74
2023/09/03 00:45:45;;;;;;;44.50;18.40;;;12.70;99.90;;;;;;4994094;28;20103;-74
2023/09/03 00:48:13;;;;;;;39.65;17.55;;;12.70;99.90;;;;;;4993667;28;20513;-75
2023/09/03 00:50:41;;;;;;;46.13;18.90;;;12.70;99.90;;;;;;4992599;28;20046;-74
2023/09/03 00:53:08;;;;;;;46.80;18.55;;;12.70;99.90;;;;;;4994232;28;20391;-75
2023/09/03 00:55:34;;;;;;;;;;;12.60;99.90;;;;;;4997753;28;20459;-74
2023/09/03 00:58:00;;;;;;;47.43;18.07;;;12.60;99.90;;;;;;4997602;28;19983;-74
2023/09/03 01:00:26;;;;;;;40.25;17.15;;;12.60;99.90;;;;;;4996342;28;20453;-74
2023/09/03 01:02:54;;;;;;;42.00;17.58;;;12.50;99.90;;;;;;4997437;28;20149;-75
2023/09/03 01:05:20;;;;;;;47.50;19.23;;;12.50;99.90;;;;;;4997743;28;20097;-74
2023/09/03 01:07:48;;;;;;;50.05;19.17;;;12.50;99.90;;;;;;4996526;28;20054;-76
2023/09/03 01:10:15;;;;;;;40.95;17.63;;;12.50;99.90;;;;;;4997679;28;20053;-75
2023/09/03 01:12:41;;;;;;;45.05;16.65;;;12.50;99.90;;;;;;4997741;28;20525;-74
2023/09/03 01:15:42;;;;;;;38.60;15.63;;;12.50;99.90;;;;;;4997557;28;20050;-75
2023/09/03 01:18:23;;;;;;;35.88;15.18;;;12.40;99.90;;;;;;4997299;28;20145;-75
2023/09/03 01:21:15;;;;;;;31.48;13.10;;;12.30;99.90;;;;;;4998210;28;20070;-77
2023/09/03 01:24:00;;;;;;;33.20;13.82;;;12.20;99.90;;;;;;4997029;28;20050;-75
2023/09/03 01:26:41;;;;;;;38.63;16.83;;;12.20;99.90;;;;;;4996325;28;20058;-74
2023/09/03 01:29:08;;;;;;;43.80;18.13;;;12.20;99.90;;;;;;4997357;28;20050;-75
2023/09/03 01:31:36;;;;;;;43.03;19.77;;;12.20;99.90;;;;;;4997197;28;20104;-75
2023/09/03 01:34:03;;;;;;;48.65;21.23;;;12.20;99.90;;;;;;4997940;28;20453;-75
2023/09/03 01:36:33;;;;;;;58.15;26.60;;;12.20;99.90;;;;;;4997648;28;20157;-75
2023/09/03 01:39:03;;;;;;;49.92;24.40;;;12.30;99.90;;;;;;4997198;28;20460;-75
2023/09/03 01:41:34;;;;;;;43.75;19.77;;;12.30;99.90;;;;;;4996007;28;20498;-75
2023/09/03 01:44:00;;;;;;;42.67;18.88;;;12.30;99.90;;;;;;4997799;28;20073;-75
2023/09/03 01:46:49;;;;;;;44.47;19.33;;;12.30;99.90;;;;;;4996977;28;20058;-75
2023/09/03 01:49:31;;;;;;;41.30;18.08;;;12.30;99.90;;;;;;4997065;28;20385;-75
2023/09/03 01:51:56;;;;;;;47.75;19.70;;;12.30;99.90;;;;;;4996367;28;20185;-75
2023/09/03 01:54:31;;;;;;;44.80;19.70;;;12.30;99.90;;;;;;4996781;28;20133;-75
2023/09/03 01:56:58;;;;;;;49.38;20.20;;;12.30;99.90;;;;;;4996794;28;20053;-74
2023/09/03 01:59:35;;;;;;;51.08;21.00;;;12.30;99.90;;;;;;4996675;28;20058;-75
2023/09/03 02:02:02;;;;;;;51.63;22.27;;;12.30;99.90;;;;;;4996589;28;20054;-75
2023/09/03 02:04:28;;;;;;;50.30;21.08;;;12.30;99.90;;;;;;4996316;28;20490;-76
2023/09/03 02:06:53;;;;;;;46.35;20.50;;;12.30;99.90;;;;;;4996364;28;20052;-75
2023/09/03 02:09:19;;;;;;;45.30;19.67;;;12.40;99.90;;;;;;4995419;28;20053;-75
2023/09/03 02:11:45;;;;;;;48.75;20.83;;;12.40;99.90;;;;;;4996374;28;20039;-75
2023/09/03 02:14:10;;;;;;;43.67;19.48;;;12.40;99.90;;;;;;4995520;28;20081;-75
2023/09/03 02:16:36;;;;;;;41.65;19.05;;;12.30;99.90;;;;;;4996358;28;20097;-74
2023/09/03 02:19:02;;;;;;;45.00;19.77;;;12.40;99.90;;;;;;4995229;28;20065;-75
2023/09/03 02:21:28;;;;;;;48.40;19.65;;;12.40;99.90;;;;;;4996289;28;20046;-74
2023/09/03 02:23:53;;;;;;;39.55;17.67;;;12.30;99.90;;;;;;4995276;28;20057;-74
2023/09/03 02:26:19;;;;;;;39.50;17.33;;;12.30;99.90;;;;;;4995566;28;20046;-75
2023/09/03 02:28:45;;;;;;;35.25;15.75;;;12.30;99.90;;;;;;4994876;28;20138;-75
2023/09/03 02:31:12;;;;;;;35.05;15.27;;;12.20;99.90;;;;;;4996898;28;20039;-75
2023/09/03 02:33:38;;;;;;;32.55;14.80;;;12.20;99.90;;;;;;4995230;28;20398;-75
2023/09/03 02:36:04;;;;;;;37.58;15.93;;;12.10;99.90;;;;;;4996128;28;20042;-74
2023/09/03 02:38:29;;;;;;;36.17;15.27;;;12.10;99.90;;;;;;4994838;28;20046;-75
2023/09/03 02:40:55;;;;;;;37.35;15.65;;;12.00;99.90;;;;;;4995067;28;20046;-75
2023/09/03 02:43:21;;;;;;;37.30;15.80;;;12.00;99.90;;;;;;4995277;28;20042;-75
2023/09/03 02:45:46;;;;;;;40.05;15.98;;;12.00;99.90;;;;;;4996364;28;20052;-76
2023/09/03 02:48:12;;;;;;;44.65;18.00;;;12.00;99.90;;;;;;4978877;28;20097;-76
2023/09/03 02:50:38;;;;;;;41.97;17.95;;;11.90;99.90;;;;;;4996225;28;20082;-75
2023/09/03 02:53:07;;;;;;;37.75;15.38;;;11.90;99.90;;;;;;4995842;28;20050;-75
2023/09/03 02:55:33;;;;;;;34.28;14.13;;;11.90;99.90;;;;;;4994832;28;20046;-75
2023/09/03 02:57:59;;;;;;;32.72;13.70;;;11.80;99.90;;;;;;4996449;28;20085;-74
2023/09/03 03:00:25;;;;;;;35.22;14.60;;;11.80;99.90;;;;;;4995802;28;20055;-76
2023/09/03 03:02:55;;;;;;;34.55;14.32;;;11.70;99.90;;;;;;4994346;28;20129;-76
2023/09/03 03:05:21;;;;;;;35.85;14.85;;;11.70;99.90;;;;;;4994540;28;20057;-76
2023/09/03 03:07:46;;;;;;;41.38;16.33;;;11.70;99.90;;;;;;4995411;28;20043;-75
2023/09/03 03:10:12;;;;;;;38.90;15.82;;;11.70;99.90;;;;;;4994263;28;20096;-75
2023/09/03 03:12:38;;;;;;;42.05;16.52;;;11.70;99.90;;;;;;4994312;28;20065;-76
2023/09/03 03:15:04;;;;;;;38.22;16.30;;;11.70;99.90;;;;;;4995091;28;20086;-75
2023/09/03 03:17:30;;;;;;;43.93;18.80;;;11.60;99.90;;;;;;4994850;28;20042;-75
2023/09/03 03:19:55;;;;;;;44.42;17.67;;;11.70;99.90;;;;;;4995639;28;20053;-75
2023/09/03 03:22:21;;;;;;;50.58;20.17;;;11.70;99.90;;;;;;4977931;28;20042;-75
2023/09/03 03:24:47;;;;;;;52.08;19.88;;;11.70;99.90;;;;;;4995584;28;20050;-75
2023/09/03 03:27:13;;;;;;;53.55;20.42;;;11.60;99.90;;;;;;4994950;28;20046;-75
2023/09/03 03:29:39;;;;;;;46.60;18.85;;;11.70;99.90;;;;;;4993805;28;20321;-75
2023/09/03 03:32:07;;;;;;;53.97;20.38;;;11.70;99.90;;;;;;4994950;28;20045;-75
2023/09/03 03:34:33;;;;;;;57.60;21.00;;;11.60;99.90;;;;;;4994987;28;20128;-75
2023/09/03 03:36:58;;;;;;;51.67;20.25;;;11.60;99.90;;;;;;4994912;28;20129;-75
2023/09/03 03:39:24;;;;;;;49.88;19.20;;;11.60;99.90;;;;;;4993727;28;20061;-76
2023/09/03 03:41:50;;;;;;;54.60;19.75;;;11.50;99.90;;;;;;4993802;28;20039;-76
2023/09/03 03:44:15;;;;;;;47.55;19.45;;;11.50;99.90;;;;;;4995328;28;20470;-75
2023/09/03 03:46:41;;;;;;;49.92;19.73;;;11.50;99.90;;;;;;4994736;28;20121;-75
2023/09/03 03:49:08;;;;;;;48.65;20.10;;;11.50;99.90;;;;;;4994413;28;20124;-75
2023/09/03 03:51:33;;;;;;;50.22;19.02;;;11.40;99.90;;;;;;4993522;28;20050;-76
2023/09/03 03:54:03;;;;;;;48.83;19.88;;;11.40;99.90;;;;;;4994548;28;20137;-75
2023/09/03 03:56:29;;;;;;;55.17;20.42;;;11.40;99.90;;;;;;4995089;28;20390;-75
2023/09/03 03:58:55;;;;;;;55.55;21.48;;;11.40;99.90;;;;;;4994510;28;20113;-76
2023/09/03 04:01:24;;;;;;;50.70;20.80;;;11.40;99.90;;;;;;4994340;28;20046;-76
2023/09/03 04:03:52;;;;;;;47.88;19.75;;;11.40;99.90;;;;;;4994394;28;20136;-75
2023/09/03 04:06:19;;;;;;;62.90;21.40;;;11.40;99.90;;;;;;4993520;28;20102;-75
2023/09/03 04:08:45;;;;;;;53.53;21.88;;;11.40;99.90;;;;;;4994471;28;20047;-74
2023/09/03 04:11:13;;;;;;;56.43;22.50;;;11.40;99.90;;;;;;4993394;28;20121;-75
2023/09/03 04:13:40;;;;;;;51.90;21.38;;;11.50;99.90;;;;;;4994385;28;20297;-75
2023/09/03 04:16:16;;;;;;;55.40;21.05;;;11.50;99.90;;;;;;4993655;28;20101;-75
2023/09/03 04:18:43;;;;;;;56.80;21.77;;;11.50;99.90;;;;;;4994899;28;20475;-75
2023/09/03 04:21:09;;;;;;;53.42;21.75;;;11.50;99.90;;;;;;4994435;28;20117;-75
2023/09/03 04:23:35;;;;;;;51.70;18.88;;;11.50;99.90;;;;;;4994054;28;20137;-75
2023/09/03 04:26:01;;;;;;;41.65;16.05;;;11.50;99.90;;;;;;4993405;28;20054;-75
2023/09/03 04:28:27;;;;;;;31.52;14.05;;;11.40;99.90;;;;;;4994734;28;20058;-75
2023/09/03 04:30:54;;;;;;;27.25;11.65;;;11.30;99.90;;;;;;4992925;28;20042;-75
2023/09/03 04:33:20;;;;;;;25.55;10.70;;;11.30;99.90;;;;;;4994673;28;20046;-75
2023/09/03 04:35:46;;;;;;;22.63;10.30;;;11.20;99.90;;;;;;4994094;28;20058;-74
2023/09/03 04:38:12;;;;;;;22.85;10.45;;;11.10;99.90;;;;;;4976831;28;20051;-75
2023/09/03 04:40:38;;;;;;;25.25;10.93;;;11.10;99.90;;;;;;4992940;28;20086;-75
2023/09/03 04:43:04;;;;;;;20.73;10.15;;;11.00;99.90;;;;;;4992690;28;20482;-75
2023/09/03 04:45:31;;;;;;;26.27;10.13;;;11.00;99.90;;;;;;4992905;28;20050;-76
2023/09/03 04:47:58;;;;;;;;;;;11.00;99.90;;;;;;4994104;28;20050;-76
2023/09/03 04:50:25;;;;;;;21.50;9.38;;;11.00;99.90;;;;;;4994099;28;19922;-75
2023/09/03 04:52:55;;;;;;;19.77;8.73;;;10.90;99.90;;;;;;4993404;28;20479;-76
2023/09/03 04:55:20;;;;;;;24.77;10.00;;;11.00;99.90;;;;;;4993940;28;20494;-75
2023/09/03 04:57:46;;;;;;;25.88;11.02;;;11.00;99.90;;;;;;4992777;28;20086;-76
2023/09/03 05:00:13;;;;;;;28.50;12.18;;;11.00;99.90;;;;;;4992509;28;20093;-75
2023/09/03 05:02:39;;;;;;;25.23;11.23;;;11.00;99.90;;;;;;4992507;28;20050;-75
2023/09/03 05:05:05;;;;;;;23.45;10.40;;;11.00;99.90;;;;;;4977122;28;20112;-76
2023/09/03 05:07:31;;;;;;;25.30;11.52;;;11.10;99.90;;;;;;4993998;28;20054;-76
2023/09/03 05:09:57;;;;;;;23.33;10.80;;;11.10;99.90;;;;;;4994038;28;20052;-75
2023/09/03 05:12:23;;;;;;;24.35;11.52;;;11.20;99.90;;;;;;4994073;28;20038;-75
2023/09/03 05:14:48;;;;;;;23.23;10.55;;;11.20;99.90;;;;;;4994027;28;20069;-75
2023/09/03 05:17:15;;;;;;;29.38;11.80;;;11.30;99.90;;;;;;4994016;28;20042;-76
2023/09/03 05:19:40;;;;;;;28.17;12.35;;;11.30;99.90;;;;;;4993400;28;20105;-75
2023/09/03 05:22:06;;;;;;;27.55;12.38;;;11.30;99.90;;;;;;4992393;28;20050;-75
2023/09/03 05:24:32;;;;;;;27.90;12.63;;;11.40;99.90;;;;;;4993393;28;20483;-76
2023/09/03 05:26:58;;;;;;;34.20;15.52;;;11.50;99.90;;;;;;4977074;28;20093;-75
2023/09/03 05:29:24;;;;;;;39.35;18.15;;;11.50;99.90;;;;;;4993640;28;20054;-75
2023/09/03 05:31:49;;;;;;;40.63;20.13;;;11.60;99.90;;;;;;4993491;28;20045;-75
2023/09/03 05:34:15;;;;;;;40.92;19.20;;;11.60;99.90;;;;;;4993631;28;20053;-75
2023/09/03 05:36:41;;;;;;;40.50;18.05;;;11.60;99.90;;;;;;4993577;28;20548;-74
2023/09/03 05:39:07;;;;;;;39.15;16.58;;;11.70;99.90;;;;;;4992217;28;20089;-76
2023/09/03 05:41:33;;;;;;;37.75;16.90;;;11.70;99.90;;;;;;4995599;28;20050;-76
2023/09/03 05:44:05;;;;;;;41.55;18.17;;;11.80;99.90;;;;;;4996951;28;20050;-76
2023/09/03 05:46:31;;;;;;;44.30;18.45;;;11.80;99.90;;;;;;4996086;28;20065;-76
2023/09/03 05:48:57;;;;;;;46.17;17.77;;;11.90;99.90;;;;;;4996600;28;20410;-75
2023/09/03 05:51:23;;;;;;;48.30;18.73;;;12.00;99.90;;;;;;4995710;28;20046;-75
2023/09/03 05:53:49;;;;;;;51.97;19.98;;;12.10;99.90;;;;;;4996628;28;20419;-75
2023/09/03 05:56:14;;;;;;;53.35;20.05;;;12.20;99.90;;;;;;4997577;28;20164;-75
2023/09/03 05:58:40;;;;;;;51.17;20.33;;;12.20;99.90;;;;;;4996770;28;20510;-75
2023/09/03 06:01:08;;;;;;;47.65;19.58;;;12.30;99.90;;;;;;4978967;28;20050;-74
2023/09/03 06:03:34;;;;;;;48.60;18.63;;;12.40;99.90;;;;;;4996261;28;20367;-76
2023/09/03 06:06:08;;;;;;;42.10;18.00;;;12.50;99.90;;;;;;4997051;28;20046;-75
2023/09/03 06:08:35;;;;;;;43.35;17.52;;;12.50;99.90;;;;;;4996563;28;20328;-76
2023/09/03 06:11:02;;;;;;;45.47;17.75;;;12.60;99.90;;;;;;4996394;28;20042;-75
2023/09/03 06:13:28;;;;;;;43.10;17.17;;;12.60;99.90;;;;;;4996505;28;20052;-75
2023/09/03 06:15:55;;;;;;;39.47;16.65;;;12.70;99.90;;;;;;4979051;28;20096;-75
2023/09/03 06:18:21;;;;;;;36.95;16.25;;;12.80;99.90;;;;;;4996009;28;20088;-75
2023/09/03 06:20:47;;;;;;;38.03;15.87;;;12.80;99.90;;;;;;4995161;28;20097;-76
2023/09/03 06:23:18;;;;;;;37.33;15.63;;;12.90;99.90;;;;;;4996205;28;20054;-75
2023/09/03 06:25:45;;;;;;;35.17;15.65;;;13.00;99.90;;;;;;4996299;28;20065;-74
2023/09/03 06:28:10;;;;;;;33.30;14.50;;;13.00;99.90;;;;;;4995505;28;20061;-75
2023/09/03 06:30:36;;;;;;;37.58;16.33;;;13.10;99.90;;;;;;4995886;28;20050;-76
2023/09/03 06:33:02;;;;;;;36.13;15.07;;;13.10;99.90;;;;;;4995786;28;20051;-74
2023/09/03 06:35:28;;;;;;;38.78;15.90;;;13.20;99.90;;;;;;4980481;28;20050;-75
2023/09/03 06:37:55;;;;;;;41.00;16.83;;;13.20;99.90;;;;;;4996245;28;20050;-76
2023/09/03 06:40:21;;;;;;;41.38;16.95;;;13.20;99.90;;;;;;4979455;28;20100;-74
2023/09/03 06:42:47;;;;;;;37.57;16.20;;;13.30;99.90;;;;;;4995143;28;20491;-75
2023/09/03 06:45:13;;;;;;;45.80;16.98;;;13.30;99.90;;;;;;4994653;28;20372;-74
2023/09/03 06:47:39;;;;;;;41.67;17.45;;;13.40;99.90;;;;;;4996095;28;20046;-75
2023/09/03 06:50:06;;;;;;;42.78;18.10;;;13.40;99.90;;;;;;4995739;28;20050;-73
2023/09/03 06:52:32;;;;;;;41.13;17.90;;;13.50;99.90;;;;;;4978814;28;20052;-75
2023/09/03 06:54:58;;;;;;;46.73;18.13;;;13.60;99.90;;;;;;4994670;28;20054;-75
2023/09/03 06:57:24;;;;;;;50.90;18.63;;;13.60;99.90;;;;;;4995502;28;20840;-76
2023/09/03 06:59:50;;;;;;;47.88;19.63;;;13.70;99.90;;;;;;4996117;28;20049;-75
2023/09/03 07:02:16;;;;;;;51.70;20.05;;;13.80;99.90;;;;;;4994119;28;20059;-77
2023/09/03 07:04:41;;;;;;;51.10;21.20;;;13.90;99.90;;;;;;4994584;28;20401;-75
2023/09/03 07:07:08;;;;;;;47.20;20.13;;;13.90;99.90;;;;;;4995698;28;20046;-76
2023/09/03 07:09:34;;;;;;;49.03;21.00;;;14.00;99.90;;;;;;4994302;28;20061;-75
2023/09/03 07:12:01;;;;;;;50.95;21.10;;;14.00;99.90;;;;;;4995037;28;20043;-75
2023/09/03 07:14:26;;;;;;;54.25;20.50;;;14.10;99.90;;;;;;4994327;28;20062;-75
2023/09/03 07:16:52;;;;;;;52.55;20.63;;;14.20;99.90;;;;;;4995345;28;20050;-75
2023/09/03 07:19:18;;;;;;;55.72;22.05;;;14.20;99.90;;;;;;4995085;28;20046;-75
2023/09/03 07:21:44;;;;;;;53.85;21.15;;;14.40;99.90;;;;;;4994480;28;20058;-76
2023/09/03 07:24:11;;;;;;;53.97;21.05;;;14.50;99.90;;;;;;4977857;28;20038;-74
2023/09/03 07:26:36;;;;;;;49.10;21.08;;;14.50;99.90;;;;;;4994191;28;20461;-75
2023/09/03 07:29:02;;;;;;;55.63;21.38;;;14.60;99.90;;;;;;4994034;28;20097;-75
2023/09/03 07:31:28;;;;;;;56.67;21.55;;;14.70;99.90;;;;;;4995621;28;20046;-76
2023/09/03 07:33:54;;;;;;;56.65;22.88;;;14.80;99.90;;;;;;4993856;28;20512;-76
2023/09/03 07:36:19;;;;;;;56.25;22.55;;;14.90;99.90;;;;;;4993936;28;20061;-77
2023/09/03 07:38:45;;;;;;;56.55;20.83;;;15.00;99.90;;;;;;4995196;28;20042;-75
2023/09/03 07:41:11;;;;;;;52.55;21.77;;;15.10;99.90;;;;;;4994441;28;20037;-75
2023/09/03 07:43:36;;;;;;;47.88;19.95;;;15.20;99.90;;;;;;4994677;28;20042;-75
2023/09/03 07:46:02;;;;;;;46.58;18.13;;;15.40;99.90;;;;;;4961573;28;20442;-75
2023/09/03 07:48:28;;;;;;;38.95;17.42;;;15.50;99.90;;;;;;4993596;28;20085;-76
2023/09/03 07:50:54;;;;;;;40.58;18.27;;;15.60;99.90;;;;;;4993957;28;20068;-77
2023/09/03 07:53:19;;;;;;;46.30;17.25;;;15.70;99.90;;;;;;4994360;28;20088;-76
2023/09/03 07:55:45;;;;;;;43.05;17.75;;;15.80;99.90;;;;;;4977728;28;20364;-75
2023/09/03 07:58:11;;;;;;;40.22;17.55;;;15.90;99.90;;;;;;4993024;28;20094;-78
2023/09/03 08:00:40;;;;;;;36.20;16.88;;;16.00;99.90;;;;;;4977504;28;20050;-74
2023/09/03 08:03:05;;;;;;;43.92;17.27;;;16.20;99.90;;;;;;4993862;28;20101;-74
2023/09/03 08:05:31;;;;;;;40.28;17.55;;;16.30;99.90;;;;;;4992980;28;20086;-74
2023/09/03 08:07:57;;;;;;;31.85;15.23;;;16.40;99.90;;;;;;4993008;28;20089;-76
2023/09/03 08:10:23;;;;;;;40.05;17.30;;;16.60;99.90;;;;;;4994099;28;20050;-75
2023/09/03 08:12:50;;;;;;;41.72;16.27;;;16.70;99.90;;;;;;4992829;28;20137;-75
2023/09/03 08:15:16;;;;;;;40.15;15.55;;;16.80;99.90;;;;;;4993886;28;20462;-74
2023/09/03 08:17:42;;;;;;;43.67;17.63;;;17.00;99.90;;;;;;4993806;28;20367;-75
2023/09/03 08:20:08;;;;;;;36.53;16.67;;;17.10;99.90;;;;;;4977183;28;20297;-77
2023/09/03 08:22:36;;;;;;;45.75;17.75;;;17.20;99.90;;;;;;4960988;28;20077;-74
2023/09/03 08:25:02;;;;;;;42.50;17.92;;;17.40;99.90;;;;;;4994041;28;20054;-76
2023/09/03 08:27:28;;;;;;;41.60;18.67;;;17.50;99.90;;;;;;4994476;28;20431;-74
2023/09/03 08:29:54;;;;;;;42.07;17.87;;;17.50;99.90;;;;;;4976508;28;20100;-76
2023/09/03 08:32:19;;;;;;;45.30;17.80;;;17.60;99.90;;;;;;4992769;28;20042;-75
2023/09/03 08:34:45;;;;;;;36.97;17.53;;;17.70;99.90;;;;;;4994792;28;20054;-75
2023/09/03 08:37:11;;;;;;;32.47;15.80;;;17.70;99.90;;;;;;4993955;28;20463;-75
2023/09/03 08:39:36;;;;;;;28.55;14.15;;;17.70;99.90;;;;;;4993859;28;20085;-76
2023/09/03 08:42:03;;;;;;;35.53;15.87;;;17.70;99.90;;;;;;4992775;28;20129;-75
2023/09/03 08:44:37;;;;;;;34.33;14.57;;;17.70;99.90;;;;;;4992693;28;20050;-75
2023/09/03 08:47:04;;;;;;;35.67;15.98;;;17.80;99.90;;;;;;4993905;28;20060;-75
2023/09/03 08:49:31;;;;;;;39.80;17.02;;;17.80;99.90;;;;;;4992923;28;20057;-74
2023/09/03 08:51:58;;;;;;;37.75;15.93;;;17.90;99.90;;;;;;4994568;28;20042;-76
2023/09/03 08:54:24;;;;;;;43.78;17.27;;;17.90;99.90;;;;;;4994576;28;20042;-77
2023/09/03 08:56:50;;;;;;;41.35;18.70;;;17.90;99.90;;;;;;4993310;28;20437;-76
2023/09/03 08:59:16;;;;;;;41.00;18.27;;;17.90;99.90;;;;;;4992583;28;20050;-76
2023/09/03 09:01:44;;;;;;;40.80;18.60;;;18.00;99.90;;;;;;4993558;28;20051;-75
2023/09/03 09:04:11;;;;;;;41.25;19.17;;;17.90;99.90;;;;;;4976745;28;20112;-76
2023/09/03 09:06:39;;;;;;;46.08;18.45;;;18.00;99.90;;;;;;4993626;28;20092;-75
2023/09/03 09:09:05;;;;;;;43.13;19.20;;;18.00;99.90;;;;;;4977327;28;20458;-74
2023/09/03 09:11:38;;;;;;;51.55;22.00;;;18.00;99.90;;;;;;4994143;28;20050;-75
2023/09/03 09:14:11;;;;;;;43.97;21.00;;;18.10;99.90;;;;;;4992533;28;20109;-75
2023/09/03 09:16:36;;;;;;;38.65;17.67;;;18.10;99.90;;;;;;4995826;28;20046;-74
2023/09/03 09:19:02;;;;;;;38.83;14.93;;;18.20;99.90;;;;;;4996594;28;20046;-74
2023/09/03 09:21:31;;;;;;;32.77;16.43;;;18.30;99.90;;;;;;4995950;28;20042;-75
2023/09/03 09:24:01;;;;;;;38.05;18.15;;;18.40;99.90;;;;;;4997657;28;20398;-75
2023/09/03 09:26:31;;;;;;;42.00;18.13;;;18.50;99.90;;;;;;4997167;28;20051;-73
2023/09/03 09:29:01;;;;;;;41.85;16.85;;;18.60;99.90;;;;;;4995899;28;20497;-74
2023/09/03 09:31:32;;;;;;;38.75;16.00;;;18.70;99.90;;;;;;4995642;28;20046;-74
2023/09/03 09:34:00;;;;;;;41.08;15.77;;;18.90;99.90;;;;;;4996937;28;20057;-75
2023/09/03 09:36:27;;;;;;;33.60;15.13;;;19.00;99.90;;;;;;4996598;28;20045;-74
2023/09/03 09:38:53;;;;;;;29.77;13.57;;;19.10;99.90;;;;;;4996452;28;20584;-73
2023/09/03 09:41:24;;;;;;;27.50;13.02;;;19.20;99.90;;;;;;4995848;28;20364;-75
2023/09/03 09:43:51;;;;;;;29.42;12.10;;;19.30;99.90;;;;;;4997472;28;20093;-75
2023/09/03 09:46:26;;;;;;;27.15;12.98;;;19.30;99.90;;;;;;4995793;28;20406;-75
2023/09/03 09:48:58;;;;;;;25.35;9.80;;;19.30;99.90;;;;;;4996693;28;20058;-74
2023/09/03 09:51:28;;;;;;;24.85;11.57;;;19.40;99.90;;;;;;4995481;28;20046;-73
2023/09/03 09:54:01;;;;;;;28.05;11.45;;;19.50;99.90;;;;;;4996717;28;20053;-74
2023/09/03 09:56:27;;;;;;;27.27;10.77;;;19.50;99.90;;;;;;4995256;28;20054;-76
2023/09/03 09:58:54;;;;;;;24.90;11.45;;;19.40;99.90;;;;;;4996570;28;20142;-76
2023/09/03 10:01:20;;;;;;;25.52;11.10;;;19.30;99.90;;;;;;4995202;28;20046;-74
2023/09/03 10:03:49;;;;;;;33.78;12.80;;;19.30;99.90;;;;;;4996571;28;20455;-77
2023/09/03 10:06:20;;;;;;;31.20;13.43;;;19.20;99.90;;;;;;4996750;28;20125;-74
2023/09/03 10:08:47;;;;;;;31.60;13.35;;;19.20;99.90;;;;;;4995316;28;20057;-74
2023/09/03 10:11:13;;;;;;;27.70;11.93;;;19.30;99.90;;;;;;4996443;28;20047;-75
2023/09/03 10:13:41;;;;;;;28.60;11.80;;;19.30;99.90;;;;;;4996304;28;20050;-74
2023/09/03 10:16:10;;;;;;;27.20;11.93;;;19.40;99.90;;;;;;4980159;28;20096;-75
2023/09/03 10:18:43;;;;;;;32.45;12.90;;;19.40;99.90;;;;;;4995676;28;20109;-74
2023/09/03 10:21:10;;;;;;;32.38;12.27;;;19.30;99.90;;;;;;4996588;28;20042;-75
2023/09/03 10:23:57;;;;;;;30.73;12.80;;;19.30;99.90;;;;;;4979352;28;20053;-76
2023/09/03 10:26:37;;;;;;;32.67;11.90;;;19.50;99.90;;;;;;4996140;28;20050;-74
2023/09/03 10:29:06;;;;;;;29.60;12.70;;;19.60;99.90;;;;;;4995185;28;20501;-74
2023/09/03 10:31:35;;;;;;;30.38;10.98;;;19.60;99.90;;;;;;4994991;28;20173;-74
2023/09/03 10:34:01;;;;;;;25.38;10.48;;;19.80;99.90;;;;;;4995276;28;20394;-75
2023/09/03 10:36:27;;;;;;;23.58;9.18;;;19.80;99.90;;;;;;4994976;28;20087;-74
2023/09/03 10:38:53;;;;;;;21.23;9.27;;;19.80;99.90;;;;;;4995843;28;20078;-76
2023/09/03 10:41:21;;;;;;;21.37;7.90;;;19.80;99.90;;;;;;4978824;28;20121;-74
2023/09/03 10:43:56;;;;;;;26.88;11.02;;;19.80;99.90;;;;;;4995931;28;20129;-74
2023/09/03 10:46:25;;;;;;;26.98;10.82;;;19.80;99.90;;;;;;4996072;28;20049;-73
2023/09/03 10:48:55;;;;;;;24.70;11.27;;;19.80;99.90;;;;;;4996358;28;20108;-76
2023/09/03 10:51:37;;;;;;;27.67;11.98;;;19.80;99.90;;;;;;4995865;28;20090;-77
2023/09/03 10:54:20;;;;;;;29.92;11.73;;;19.80;99.90;;;;;;4996146;28;20054;-74
2023/09/03 10:57:04;;;;;;;28.83;12.93;;;19.90;99.90;;;;;;4996257;28;20129;-74
2023/09/03 11:00:04;;;;;;;28.73;12.75;;;20.10;99.90;;;;;;4995404;28;20386;-73
2023/09/03 11:02:31;;;;;;;25.08;12.40;;;20.00;99.90;;;;;;4983684;28;20156;-75
2023/09/03 11:05:12;;;;;;;17.17;8.45;;;19.80;99.90;;;;;;4996260;28;20142;-74
2023/09/03 11:07:40;;;;;;;20.75;8.40;;;19.60;99.90;;;;;;4994517;28;20038;-74
2023/09/03 11:10:21;;;;;;;18.85;7.95;;;19.70;99.90;;;;;;4995586;28;20054;-74
2023/09/03 11:12:50;;;;;;;19.25;6.97;;;19.80;99.90;;;;;;4994725;28;20136;-75
2023/09/03 11:15:16;;;;;;;19.00;8.20;;;19.80;99.90;;;;;;4995441;28;20188;-76
2023/09/03 11:17:55;;;;;;;21.40;6.30;;;19.90;99.90;;;;;;4995383;28;20458;-75
2023/09/03 11:20:36;;;;;;;14.27;5.80;;;20.00;99.90;;;;;;4995842;28;20403;-75
2023/09/03 11:23:03;;;;;;;12.23;4.07;;;20.00;99.90;;;;;;4995215;28;20046;-78
2023/09/03 11:25:36;;;;;;;15.30;5.07;;;20.10;99.90;;;;;;4995287;28;20390;-75
2023/09/03 11:28:04;;;;;;;13.90;4.88;;;20.20;99.90;;;;;;4994184;28;20231;-76
2023/09/03 11:30:30;;;;;;;11.40;4.20;;;20.20;99.90;;;;;;4995124;28;20042;-75
2023/09/03 11:32:56;;;;;;;12.75;4.40;;;20.20;99.90;;;;;;4995312;28;20463;-76
2023/09/03 11:35:23;;;;;;;17.35;4.70;;;20.30;99.90;;;;;;4993895;28;20051;-75
2023/09/03 11:37:52;;;;;;;16.15;4.90;;;20.40;99.90;;;;;;4992932;28;20050;-77
2023/09/03 11:40:18;;;;;;;14.52;4.72;;;20.40;99.90;;;;;;4993857;28;20066;-75
2023/09/03 11:42:48;;;;;;;8.93;4.33;;;20.50;99.90;;;;;;4995186;28;20046;-75
2023/09/03 11:45:14;;;;;;;11.50;4.70;;;20.50;99.90;;;;;;4995446;28;20047;-76
2023/09/03 11:47:50;;;;;;;14.10;5.07;;;20.40;99.90;;;;;;4994978;28;20430;-74
2023/09/03 11:50:17;;;;;;;13.23;4.85;;;20.30;99.90;;;;;;4993721;28;20050;-76
2023/09/03 11:52:58;;;;;;;12.43;4.50;;;20.50;99.90;;;;;;4977342;28;20051;-75
2023/09/03 11:55:28;;;;;;;13.50;5.07;;;20.50;99.90;;;;;;4994740;28;20049;-76
2023/09/03 11:57:57;;;;;;;11.60;4.15;;;20.60;99.90;;;;;;4993997;28;20058;-74
2023/09/03 12:00:23;;;;;;;15.43;4.32;;;20.70;99.90;;;;;;4994390;28;20070;-75
2023/09/03 12:02:49;;;;;;;12.55;4.70;;;20.70;99.90;;;;;;4978232;28;20129;-75
2023/09/03 12:05:15;;;;;;;14.60;4.65;;;20.70;99.90;;;;;;4994636;28;20092;-74
2023/09/03 12:07:41;;;;;;;12.93;4.22;;;20.70;99.90;;;;;;4993380;28;20061;-77
2023/09/03 12:10:08;;;;;;;17.57;4.73;;;20.80;99.90;;;;;;4993096;28;20038;-74
2023/09/03 12:12:34;;;;;;;14.00;4.45;;;20.80;99.90;;;;;;4993930;28;20180;-75
2023/09/03 12:15:00;;;;;;;11.90;4.18;;;20.90;99.90;;;;;;4994400;28;20132;-74
2023/09/03 12:17:28;;;;;;;12.87;4.47;;;21.10;99.90;;;;;;4994369;28;20515;-76
2023/09/03 12:19:54;;;;;;;14.35;4.57;;;21.10;99.90;;;;;;4993316;28;20061;-74
2023/09/03 12:22:21;;;;;;;13.10;4.70;;;21.00;99.90;;;;;;4994841;28;20049;-77
2023/09/03 12:24:48;;;;;;;12.65;4.32;;;20.90;99.90;;;;;;4994993;28;20046;-76
2023/09/03 12:27:15;;;;;;;11.85;4.00;;;20.80;99.90;;;;;;4976805;28;20410;-75
2023/09/03 12:29:42;;;;;;;12.10;4.30;;;20.80;99.90;;;;;;4976777;28;20050;-76
2023/09/03 12:32:15;;;;;;;12.13;3.95;;;21.00;99.90;;;;;;4993158;28;20446;-76